RJKN(METAR)
05/21 23:00
METAR RJKN 211400Z AUTO 02007KT 9999 FEW019 SCT042 22/20 Q1007 RMK
A2975=
戻る
トップページへ戻る
IMOC Co,.Ltd.